首页
METAR-TAF:

METAR-TAF

机场 :

Thomson-McDuffie County Airport

Thomson, 喬治亞, 美国

纬度: 33-31-46N, 经度: 082-30-59W, 海拔: 152米

当前天气观测

该预报发布于29分钟前的06:55 UTC
风速5节,风向西转西南
温度 23°C
湿度 78%
气压 1017 hPa
能見度: 16.1公里
散云层高于8500英尺

METAR: KHQU 190655Z AUTO 24005KT 10SM SCT085 23/19 A3002 RMK AO2 T02350189

时间: 03:24 (07:24 UTC)


TAF: 丢失

超过4000个机场的气象观测和天气预报(METAR&TAF报告)。

可查询的气象台以黄色和红色小点在地图上表示。

将鼠标移到小点上方,可查看气象台名称。

然后点击查看天气观测和预报。

如需切换地图:点击带黑十字的绿色按钮放大地图;点击带横线的绿色按钮缩小地图;或者点击绿色箭头查看邻近地区的地图。


METAR-TAF: